Pagina principale
METAR-TAF:

METAR-TAF

Aeroporti :

Treviso, Italia

Aeroporto di Treviso-Sant'Angelo

latitudine: 45-39N, longitudine: 012-11E, altezza: 18 m

Osservazione

Il bollettino è stato emesso 29 minuti fa, alle 00:20 UTC
Vento 3 kt da nord
Temperature 4°C
Umidità 93%
Pressione 1002 hPa
Visibilità: 5000 m
foschia

METAR: LIPH 170020Z AUTO 01003KT 5000 BR OVC011/// 04/03 Q1002

Ora: 01:49 (00:49 UTC)

Previsione

Il bollettino è stato emesso 1 ora e 49 minuti fa, alle 23:00 UTC
Previsione valida dal 17 alle 00 UTC al 17 alle 24 UTC
Vento 5 kt da direzioni variabili
Visibilità: 3000 m
Nuvoloso ad un'altezza di 1000 ft
foschia
Temporaneamente
dal 17 alle 00 UTC al 17 alle 06 UTC
Visibilità: 0600 m
nebbia
Evoluzione graduale
dal 17 alle 06 UTC al 17 alle 09 UTC
Vento 10 kt da ovest
Visibilità: 7000 m

TAF: LIPH 162300Z 1700/1724 VRB05KT 3000 BR BKN010 TEMPO 1700/1706 0600 FG BECMG 1706/1709 28010KT 7000

Osservazioni e previsioni meteorologiche di più di 4000 aeroporti (messaggi METAR e TAF).

Le stazioni disponibili sono rappresentate dai dischi gialli e rossi sulla carta.

Puntare il mouse per vedere il nome della stazione.

Clicca sopra per visualizzare le osservazioni e previsioni meteorologiche.

Per cambiare la mappa : fare clic sui pulsanti verdi con una croce nera per ingrandire, il pulsante verde con un trattino per diminuire, o sulla freccia verde per le mappe adiacenti.


METAR-TAF: